Aviation Digital Data Service (ADDS)

Output produced by METARs form (0023 UTC 17 December 2017)
found at http://www.aviationweather.gov/adds/metars/
 
METAR text: KBVI 162147Z 00000KT 10SM CLR 04/M03 A3003 RMK LAST
Conditions at: KBVI (BEAVER FALLS ARP, PA, US) observed 2147 UTC 16 December 2017
Temperature: 4.0°C (39°F)
Dewpoint: -3.0°C (27°F) [RH = 60%]
Pressure (altimeter): 30.03 inches Hg (1017.0 mb)
Winds: calm
Visibility: 10 or more miles (16+ km)
Ceiling: at least 12,000 feet AGL
Clouds: sky clear below 12,000 feet AGL
Weather: no significant weather observed at this time

METAR text: KBVI 162047Z 24010KT 10SM SCT095 05/M03 A3001
Conditions at: KBVI (BEAVER FALLS ARP, PA, US) observed 2047 UTC 16 December 2017
Temperature: 5.0°C (41°F)
Dewpoint: -3.0°C (27°F) [RH = 56%]
Pressure (altimeter): 30.01 inches Hg (1016.3 mb)
Winds: from the WSW (240 degrees) at 12 MPH (10 knots; 5.2 m/s)
Visibility: 10 or more miles (16+ km)
Ceiling: at least 12,000 feet AGL
Clouds: scattered clouds at 9500 feet AGL
Weather: no significant weather observed at this time

METAR text: KBVI 161947Z 23007KT 10SM BKN095 05/M03 A2999
Conditions at: KBVI (BEAVER FALLS ARP, PA, US) observed 1947 UTC 16 December 2017
Temperature: 5.0°C (41°F)
Dewpoint: -3.0°C (27°F) [RH = 56%]
Pressure (altimeter): 29.99 inches Hg (1015.7 mb)
Winds: from the SW (230 degrees) at 8 MPH (7 knots; 3.6 m/s)
Visibility: 10 or more miles (16+ km)
Ceiling: 9500 feet AGL
Clouds: broken clouds at 9500 feet AGL
Weather: no significant weather observed at this time

METAR text: KBVI 161847Z 23009KT 10SM SCT045 BKN095 04/M03 A3000
Conditions at: KBVI (BEAVER FALLS ARP, PA, US) observed 1847 UTC 16 December 2017
Temperature: 4.0°C (39°F)
Dewpoint: -3.0°C (27°F) [RH = 60%]
Pressure (altimeter): 30.00 inches Hg (1016.0 mb)
Winds: from the SW (230 degrees) at 10 MPH (9 knots; 4.7 m/s)
Visibility: 10 or more miles (16+ km)
Ceiling: 9500 feet AGL
Clouds: scattered clouds at 4500 feet AGL
broken clouds at 9500 feet AGL
Weather: no significant weather observed at this time

METAR text: KBVI 161747Z 24008G17KT 10SM SCT080 BKN110 02/M03 A3000
Conditions at: KBVI (BEAVER FALLS ARP, PA, US) observed 1747 UTC 16 December 2017
Temperature: 2.0°C (36°F)
Dewpoint: -3.0°C (27°F) [RH = 69%]
Pressure (altimeter): 30.00 inches Hg (1016.0 mb)
Winds: from the WSW (240 degrees) at 9 MPH (8 knots; 4.2 m/s)
gusting to 20 MPH (17 knots; 8.8 m/s)
Visibility: 10 or more miles (16+ km)
Ceiling: 11000 feet AGL
Clouds: scattered clouds at 8000 feet AGL
broken clouds at 11000 feet AGL
Weather: no significant weather observed at this time

METAR text: KBVI 161647Z 23014G18KT 10SM SCT060 BKN070 OVC085 01/M04 A3001
Conditions at: KBVI (BEAVER FALLS ARP, PA, US) observed 1647 UTC 16 December 2017
Temperature: 1.0°C (34°F)
Dewpoint: -4.0°C (25°F) [RH = 69%]
Pressure (altimeter): 30.01 inches Hg (1016.3 mb)
Winds: from the SW (230 degrees) at 16 MPH (14 knots; 7.3 m/s)
gusting to 21 MPH (18 knots; 9.4 m/s)
Visibility: 10 or more miles (16+ km)
Ceiling: 7000 feet AGL
Clouds: scattered clouds at 6000 feet AGL
broken clouds at 7000 feet AGL
overcast cloud deck at 8500 feet AGL
Weather: no significant weather observed at this time

METAR text: KBVI 161547Z 22012G16KT 10SM OVC085 01/M04 A3001
Conditions at: KBVI (BEAVER FALLS ARP, PA, US) observed 1547 UTC 16 December 2017
Temperature: 1.0°C (34°F)
Dewpoint: -4.0°C (25°F) [RH = 69%]
Pressure (altimeter): 30.01 inches Hg (1016.3 mb)
Winds: from the SW (220 degrees) at 14 MPH (12 knots; 6.2 m/s)
gusting to 18 MPH (16 knots; 8.3 m/s)
Visibility: 10 or more miles (16+ km)
Ceiling: 8500 feet AGL
Clouds: overcast cloud deck at 8500 feet AGL
Weather: no significant weather observed at this time

METAR text: KBVI 161447Z 21006G14KT 10SM SCT060 BKN070 OVC085 M00/M05 A3001
Conditions at: KBVI (BEAVER FALLS ARP, PA, US) observed 1447 UTC 16 December 2017
Temperature: 0.0°C (32°F)
Dewpoint: -5.0°C (23°F) [RH = 69%]
Pressure (altimeter): 30.01 inches Hg (1016.3 mb)
Winds: from the SSW (210 degrees) at 7 MPH (6 knots; 3.1 m/s)
gusting to 16 MPH (14 knots; 7.3 m/s)
Visibility: 10 or more miles (16+ km)
Ceiling: 7000 feet AGL
Clouds: scattered clouds at 6000 feet AGL
broken clouds at 7000 feet AGL
overcast cloud deck at 8500 feet AGL
Weather: no significant weather observed at this time

METAR text: KBVI 161347Z 21009KT 10SM OVC060 M01/M04 A3000
Conditions at: KBVI (BEAVER FALLS ARP, PA, US) observed 1347 UTC 16 December 2017
Temperature: -1.0°C (30°F)
Dewpoint: -4.0°C (25°F) [RH = 80%]
Pressure (altimeter): 30.00 inches Hg (1016.0 mb)
Winds: from the SSW (210 degrees) at 10 MPH (9 knots; 4.7 m/s)
Visibility: 10 or more miles (16+ km)
Ceiling: 6000 feet AGL
Clouds: overcast cloud deck at 6000 feet AGL
Weather: no significant weather observed at this time

METAR text: KBVI 160147Z 26014G20KT 10SM SCT021 BKN044 OVC050 M04/M07 A2993 RMK LAST
Conditions at: KBVI (BEAVER FALLS ARP, PA, US) observed 0147 UTC 16 December 2017
Temperature: -4.0°C (25°F)
Dewpoint: -7.0°C (19°F) [RH = 80%]
Pressure (altimeter): 29.93 inches Hg (1013.6 mb)
Winds: from the W (260 degrees) at 16 MPH (14 knots; 7.3 m/s)
gusting to 23 MPH (20 knots; 10.4 m/s)
Visibility: 10 or more miles (16+ km)
Ceiling: 4400 feet AGL
Clouds: scattered clouds at 2100 feet AGL
broken clouds at 4400 feet AGL
overcast cloud deck at 5000 feet AGL
Weather: no significant weather observed at this time